Pagrindinis puslapis
METAR-TAF:

METAR-TAF

Oro uostai :

Zadaras, Kroatija

platuma: 44-06N, ilguma: 015-21E, Aukštis: 82 m

Dabartinis oras

Ataskaita buvo paskelbta 15 minutes, ne 19:30 UTC
Vėjas 9 kt iš Rytų/Šiaurės Rytų, svyruoja nuo Šiaurės ir Rytų/Pietryčių
Temperatūra 18°C
Drėgmė 39%
Slėgis 1020 hPa
Matomumas 10 km arba daugiau
Mažai debesys ne aukštis 6000 ft

METAR: LDZD 191930Z 07009KT 010V120 9999 FEW060 18/04 Q1020 NOSIG

Laikas: 21:45 (19:45 UTC)

Prognozė

Ataskaita buvo paskelbta 2 valandos ir 20 minutes, ne 17:25 UTC
Prognozė galioja nuo 19 metu 18 UTC su 20 metu 18 UTC
Vėjas 10 kt iš Rytų/Šiaurės Rytų
Matomumas 10 km arba daugiau
nėra debesų žemiau 1500 m ir nėra kamuolinių lietaus debesų
Tikimybė 40% :
Laikinai
nuo 19 metu 18 UTC su 20 metu 06 UTC
Vėjas 15 kt iš Šiaurės Rytų su gūsio iki 25 kt

TAF: LDZD 191725Z 1918/2018 06010KT CAVOK TX23/2013Z TN11/2005Z PROB40 TEMPO 1918/2006 04015G25KT

Orai ataskaitas ir orų prognozės (METAR, TAF).

turimą stotys yra geltonos ir raudonos taškus žemėlapyje.

Perkelti pele per norėdami pamatyti stoties vardą.

Tada spustelėkite, norėdami matyti oro stebėjimo ir prognozės.

Norėdami pakeisti žemėlapį: spustelėkite ant žalios mygtukų su juodo kryžiaus žemyn,; žalią mygtuką su brūkšneliu, jei norite nutolinti; arba žalių rodyklių gretimoms žemėlapius.


METAR-TAF: